Greenwich, CT (06830)

6:52 PM EST on December 10, 2016 (GMT -0500)
Greenwich 4th ward | | Change Station

Elev 167 ft 41.04 °N, 73.63 °W | Updated 10 seconds ago

Partly Cloudy
Partly Cloudy
27.7 °F
Feels Like 28 °F
N
0.0
Wind Variable Wind from NNW
Gusts 0.0 mph

Today
High -- | Low -- °F
--% Chance of Precip.
Yesterday
High -- | Low -- °F
Precip. -- in
Pressure 30.40 in
Visibility 10.0 miles
Clouds Few 5000 ft
Windchill 28 °F
Dew Point 17 °F
Humidity 63%
Rainfall 0.00 in
Snow Depth Not available.
7:08 AM 4:26 PM
Waxing Gibbous, 87% visible
METAR KHPN 102256Z 29005KT 10SM FEW050 M01/M07 A3037 RMK AO2 SLP293 T10111072
Pressure 30.40 in
Visibility 10.0 miles
Clouds Few 5000 ft
Windchill 28 °F
Dew Point 17 °F
Humidity 63%
Rainfall 0.00 in
Snow Depth Not available.
7:08 AM 4:26 PM
Waxing Gibbous, 87% visible
METAR KHPN 102256Z 29005KT 10SM FEW050 M01/M07 A3037 RMK AO2 SLP293 T10111072

10-Day Weather Forecast

Almanac

Astronomy

Dec. 10, 2016 Rise Set
Actual Time
Civil Twilight
Nautical Twilight
Astronomical Twilight
Moon
Length of Visible Light
Length of Day
Tomorrow will be .
, % of the Moon is Illuminated

Today's Extremes

State Highs State Lows

Community

WunderPhotos

Upload Photos

1,956,677 photos uploaded!

WunderBlog® & News

Nearby

Air Quality

  Air Quality AQ Index Pollutant
Not available.

Snow Depth

Station Depth Elevation

Earthquake Activity

City Distance Mag. Time & Date
Minimum magnitude displayed is 2.5.

Coastal Water Temperatures

Place Temperature

Stations

Nearby Weather Stations

Station Location Temp. Windchill Dew Point Humidity Wind Precip. Elev Updated Type
                   

Watches & Warnings

There are currently no watches in effect.